createdAt,value
2022-08-24T00:00:34.022Z,967.50
2022-08-24T00:01:24.012Z,967.51
2022-08-24T00:02:14.077Z,967.51
2022-08-24T00:03:04.154Z,967.57
2022-08-24T00:03:55.162Z,967.57
2022-08-24T00:04:43.972Z,967.58
2022-08-24T00:05:33.974Z,967.59
2022-08-24T00:06:23.981Z,967.56
2022-08-24T00:07:27.697Z,967.56
2022-08-24T00:08:05.125Z,967.56
2022-08-24T00:08:53.941Z,967.58
2022-08-24T00:09:43.922Z,967.60
2022-08-24T00:10:34.911Z,967.58
2022-08-24T00:11:23.904Z,967.58
2022-08-24T00:12:13.951Z,967.54
2022-08-24T00:13:03.905Z,967.56
2022-08-24T00:13:53.872Z,967.55
2022-08-24T00:14:43.871Z,967.50
2022-08-24T00:15:33.851Z,967.49
2022-08-24T00:16:23.906Z,967.55
2022-08-24T00:17:13.841Z,967.55
2022-08-24T00:18:04.066Z,967.56
2022-08-24T00:18:53.827Z,967.54
2022-08-24T00:19:43.802Z,967.53
2022-08-24T00:20:33.821Z,967.52
2022-08-24T00:21:23.800Z,967.52
2022-08-24T00:22:13.791Z,967.55
2022-08-24T00:23:03.769Z,967.54
2022-08-24T00:23:53.789Z,967.52
2022-08-24T00:24:43.741Z,967.52
2022-08-24T00:25:33.771Z,967.48
2022-08-24T00:26:28.495Z,967.48
2022-08-24T00:27:14.740Z,967.47
2022-08-24T00:28:03.877Z,967.52
2022-08-24T00:28:53.701Z,967.50
2022-08-24T00:29:43.707Z,967.49
2022-08-24T00:30:33.701Z,967.55
2022-08-24T00:31:23.703Z,967.53
2022-08-24T00:32:13.672Z,967.51
2022-08-24T00:33:03.660Z,967.54
2022-08-24T00:33:53.649Z,967.55
2022-08-24T00:34:47.749Z,967.53
2022-08-24T00:35:34.628Z,967.53
2022-08-24T00:36:23.650Z,967.50
2022-08-24T00:37:13.628Z,967.48
2022-08-24T00:38:03.893Z,967.53
2022-08-24T00:38:53.604Z,967.52
2022-08-24T00:39:43.597Z,967.55
2022-08-24T00:40:33.580Z,967.57
2022-08-24T00:41:23.575Z,967.59
2022-08-24T00:42:13.569Z,967.55
2022-08-24T00:43:03.565Z,967.51
2022-08-24T00:43:53.537Z,967.54
2022-08-24T00:44:43.519Z,967.50
2022-08-24T00:45:33.570Z,967.49
2022-08-24T00:46:23.509Z,967.52
2022-08-24T00:47:13.510Z,967.51
2022-08-24T00:48:03.608Z,967.51
2022-08-24T00:48:53.489Z,967.47
2022-08-24T00:49:43.489Z,967.49
2022-08-24T00:50:33.468Z,967.51
2022-08-24T00:51:23.469Z,967.52
2022-08-24T00:52:13.448Z,967.54
2022-08-24T00:53:03.439Z,967.57
2022-08-24T00:53:53.437Z,967.53
2022-08-24T00:54:46.279Z,967.55
2022-08-24T00:55:33.416Z,967.52
2022-08-24T00:56:23.398Z,967.51
2022-08-24T00:57:13.408Z,967.53
2022-08-24T00:58:03.533Z,967.55
2022-08-24T00:58:57.156Z,967.52
2022-08-24T00:59:43.349Z,967.52
2022-08-24T01:00:33.525Z,967.52
2022-08-24T01:01:23.417Z,967.51
2022-08-24T01:02:15.849Z,967.53
2022-08-24T01:03:03.327Z,967.52
2022-08-24T01:03:56.773Z,967.51
2022-08-24T01:04:43.309Z,967.55
2022-08-24T01:05:33.307Z,967.52
2022-08-24T01:06:23.288Z,967.55
2022-08-24T01:07:13.284Z,967.51
2022-08-24T01:08:03.374Z,967.54
2022-08-24T01:08:56.745Z,967.54
2022-08-24T01:09:43.248Z,967.54
2022-08-24T01:10:33.237Z,967.55
2022-08-24T01:11:23.238Z,967.54
2022-08-24T01:12:13.225Z,967.55
2022-08-24T01:13:03.220Z,967.54
2022-08-24T01:13:53.196Z,967.51
2022-08-24T01:14:43.198Z,967.53
2022-08-24T01:15:33.193Z,967.49
2022-08-24T01:16:23.228Z,967.49
2022-08-24T01:17:13.186Z,967.48
2022-08-24T01:18:03.274Z,967.47
2022-08-24T01:18:53.137Z,967.50
2022-08-24T01:19:43.137Z,967.51
2022-08-24T01:20:33.128Z,967.48
2022-08-24T01:21:23.126Z,967.52
2022-08-24T01:22:13.146Z,967.49
2022-08-24T01:23:03.087Z,967.50
2022-08-24T01:23:53.086Z,967.52
2022-08-24T01:24:43.095Z,967.47
2022-08-24T01:25:33.066Z,967.51
2022-08-24T01:26:23.047Z,967.51
2022-08-24T01:27:13.056Z,967.53
2022-08-24T01:28:04.468Z,967.53
2022-08-24T01:28:53.043Z,967.50
2022-08-24T01:29:43.007Z,967.49
2022-08-24T01:30:36.384Z,967.51
2022-08-24T01:31:23.085Z,967.47
2022-08-24T01:32:13.005Z,967.44
2022-08-24T01:33:03.128Z,967.44
2022-08-24T01:33:52.979Z,967.47
2022-08-24T01:34:42.974Z,967.44
2022-08-24T01:35:32.953Z,967.41
2022-08-24T01:36:28.436Z,967.41
2022-08-24T01:37:13.941Z,967.41
2022-08-24T01:38:03.073Z,967.42
2022-08-24T01:38:52.934Z,967.37
2022-08-24T01:39:42.961Z,967.42
2022-08-24T01:40:32.917Z,967.37
2022-08-24T01:41:26.905Z,967.41
2022-08-24T01:42:13.895Z,967.41
2022-08-24T01:43:02.878Z,967.41
2022-08-24T01:43:52.872Z,967.40
2022-08-24T01:44:42.868Z,967.41
2022-08-24T01:45:32.845Z,967.40
2022-08-24T01:46:22.853Z,967.44
2022-08-24T01:47:12.823Z,967.39
2022-08-24T01:48:03.033Z,967.39
2022-08-24T01:48:52.827Z,967.41
2022-08-24T01:49:42.804Z,967.44
2022-08-24T01:50:32.793Z,967.43
2022-08-24T01:51:22.782Z,967.44
2022-08-24T01:52:12.764Z,967.43
2022-08-24T01:53:05.457Z,967.42
2022-08-24T01:53:52.753Z,967.46
2022-08-24T01:54:43.485Z,967.43
2022-08-24T01:55:32.723Z,967.38
2022-08-24T01:56:22.704Z,967.40
2022-08-24T01:57:16.313Z,967.39
2022-08-24T01:58:02.713Z,967.39
2022-08-24T01:58:52.714Z,967.40
2022-08-24T01:59:42.673Z,967.44
2022-08-24T02:00:32.686Z,967.42
2022-08-24T02:01:22.700Z,967.43
2022-08-24T02:02:12.710Z,967.44
2022-08-24T02:03:02.895Z,967.44
2022-08-24T02:03:52.633Z,967.40
2022-08-24T02:04:44.301Z,967.41
2022-08-24T02:05:32.636Z,967.40
2022-08-24T02:06:22.612Z,967.42
2022-08-24T02:07:12.592Z,967.37
2022-08-24T02:08:02.602Z,967.42
2022-08-24T02:08:52.582Z,967.39
2022-08-24T02:09:42.576Z,967.41
2022-08-24T02:10:32.572Z,967.42
2022-08-24T02:11:22.549Z,967.38
2022-08-24T02:12:12.543Z,967.39
2022-08-24T02:13:02.728Z,967.44
2022-08-24T02:13:52.511Z,967.44
2022-08-24T02:14:42.522Z,967.45
2022-08-24T02:15:32.506Z,967.46
2022-08-24T02:16:22.616Z,967.48
2022-08-24T02:17:12.503Z,967.46
2022-08-24T02:18:02.502Z,967.45
2022-08-24T02:18:52.472Z,967.47
2022-08-24T02:19:42.451Z,967.46
2022-08-24T02:20:32.439Z,967.43
2022-08-24T02:21:22.451Z,967.48
2022-08-24T02:22:12.423Z,967.44
2022-08-24T02:23:02.617Z,967.50
2022-08-24T02:23:52.420Z,967.50
2022-08-24T02:24:42.414Z,967.51
2022-08-24T02:25:32.401Z,967.50
2022-08-24T02:26:22.380Z,967.53
2022-08-24T02:27:12.361Z,967.55
2022-08-24T02:28:02.361Z,967.55
2022-08-24T02:28:52.341Z,967.54
2022-08-24T02:29:42.362Z,967.52
2022-08-24T02:30:32.344Z,967.52
2022-08-24T02:31:22.349Z,967.53
2022-08-24T02:32:12.320Z,967.55
2022-08-24T02:33:02.497Z,967.57
2022-08-24T02:33:52.300Z,967.61
2022-08-24T02:34:42.331Z,967.60
2022-08-24T02:35:32.289Z,967.55
2022-08-24T02:36:26.173Z,967.55
2022-08-24T02:37:12.250Z,967.57
2022-08-24T02:38:02.272Z,967.57
2022-08-24T02:38:52.230Z,967.56
2022-08-24T02:39:42.267Z,967.55
2022-08-24T02:40:32.222Z,967.54
2022-08-24T02:41:22.229Z,967.55
2022-08-24T02:42:12.211Z,967.55
2022-08-24T02:43:02.349Z,967.57
2022-08-24T02:43:52.191Z,967.54
2022-08-24T02:44:42.199Z,967.57
2022-08-24T02:45:32.170Z,967.58
2022-08-24T02:46:22.183Z,967.56
2022-08-24T02:47:12.151Z,967.57
2022-08-24T02:48:02.132Z,967.58
2022-08-24T02:48:52.984Z,967.57
2022-08-24T02:49:43.121Z,967.54
2022-08-24T02:50:32.105Z,967.53
2022-08-24T02:51:22.110Z,967.55
2022-08-24T02:52:12.090Z,967.56
2022-08-24T02:53:02.226Z,967.54
2022-08-24T02:53:52.098Z,967.59
2022-08-24T02:54:42.073Z,967.59
2022-08-24T02:55:32.046Z,967.60
2022-08-24T02:56:22.039Z,967.61
2022-08-24T02:57:12.038Z,967.58
2022-08-24T02:58:02.029Z,967.54
2022-08-24T02:58:52.038Z,967.56
2022-08-24T02:59:42.015Z,967.55
2022-08-24T03:00:32.012Z,967.53
2022-08-24T03:01:23.859Z,967.54
2022-08-24T03:02:11.989Z,967.55
2022-08-24T03:03:02.277Z,967.58
2022-08-24T03:03:51.961Z,967.61
2022-08-24T03:04:41.980Z,967.62
2022-08-24T03:05:31.928Z,967.59
2022-08-24T03:06:21.928Z,967.61
2022-08-24T03:07:11.927Z,967.56
2022-08-24T03:08:01.924Z,967.59
2022-08-24T03:08:56.677Z,967.61
2022-08-24T03:09:42.914Z,967.56
2022-08-24T03:10:31.892Z,967.56
2022-08-24T03:11:25.668Z,967.57
2022-08-24T03:12:12.869Z,967.57
2022-08-24T03:13:02.057Z,967.59
2022-08-24T03:13:51.836Z,967.58
2022-08-24T03:14:41.845Z,967.60
2022-08-24T03:15:31.936Z,967.59
2022-08-24T03:16:21.818Z,967.60
2022-08-24T03:17:11.809Z,967.61
2022-08-24T03:18:01.800Z,967.61
2022-08-24T03:18:51.797Z,967.59
2022-08-24T03:19:41.787Z,967.54
2022-08-24T03:20:31.777Z,967.52
2022-08-24T03:21:21.766Z,967.54
2022-08-24T03:22:11.744Z,967.50
2022-08-24T03:23:01.882Z,967.56
2022-08-24T03:23:51.737Z,967.56
2022-08-24T03:24:41.757Z,967.50
2022-08-24T03:25:31.707Z,967.54
2022-08-24T03:26:21.702Z,967.53
2022-08-24T03:27:11.697Z,967.54
2022-08-24T03:28:01.708Z,967.55
2022-08-24T03:28:51.885Z,967.55
2022-08-24T03:29:41.698Z,967.56
2022-08-24T03:30:31.684Z,967.53
2022-08-24T03:31:21.656Z,967.55
2022-08-24T03:32:11.646Z,967.54
2022-08-24T03:33:01.738Z,967.57
2022-08-24T03:33:51.636Z,967.52
2022-08-24T03:34:41.605Z,967.52
2022-08-24T03:35:31.605Z,967.55
2022-08-24T03:36:21.595Z,967.51
2022-08-24T03:37:11.565Z,967.54
2022-08-24T03:38:01.576Z,967.49
2022-08-24T03:38:51.575Z,967.51
2022-08-24T03:39:41.572Z,967.48
2022-08-24T03:40:31.583Z,967.51
2022-08-24T03:41:21.525Z,967.53
2022-08-24T03:42:11.515Z,967.49
2022-08-24T03:43:01.527Z,967.48
2022-08-24T03:43:51.528Z,967.47
2022-08-24T03:44:41.496Z,967.46
2022-08-24T03:45:31.565Z,967.50
2022-08-24T03:46:21.586Z,967.50
2022-08-24T03:47:11.481Z,967.48
2022-08-24T03:48:01.471Z,967.49
2022-08-24T03:48:51.447Z,967.50
2022-08-24T03:49:41.454Z,967.51
2022-08-24T03:50:31.423Z,967.51
2022-08-24T03:51:21.427Z,967.47
2022-08-24T03:52:11.415Z,967.47
2022-08-24T03:53:01.584Z,967.48
2022-08-24T03:53:51.384Z,967.48
2022-08-24T03:54:41.424Z,967.44
2022-08-24T03:55:31.384Z,967.47
2022-08-24T03:56:21.383Z,967.50
2022-08-24T03:57:11.354Z,967.47
2022-08-24T03:58:01.341Z,967.47
2022-08-24T03:58:51.343Z,967.49
2022-08-24T03:59:43.979Z,967.43
2022-08-24T04:00:32.315Z,967.51
2022-08-24T04:01:21.350Z,967.48
2022-08-24T04:02:11.340Z,967.43
2022-08-24T04:03:01.303Z,967.45
2022-08-24T04:03:51.282Z,967.47
2022-08-24T04:04:41.413Z,967.46
2022-08-24T04:05:35.061Z,967.42
2022-08-24T04:06:21.245Z,967.46
2022-08-24T04:07:11.243Z,967.43
2022-08-24T04:08:01.249Z,967.45
2022-08-24T04:08:51.215Z,967.46
2022-08-24T04:09:41.222Z,967.47
2022-08-24T04:10:31.222Z,967.44
2022-08-24T04:11:21.194Z,967.46
2022-08-24T04:12:11.173Z,967.47
2022-08-24T04:13:01.183Z,967.49
2022-08-24T04:13:51.159Z,967.49
2022-08-24T04:14:41.170Z,967.51
2022-08-24T04:15:31.172Z,967.52
2022-08-24T04:16:21.171Z,967.53
2022-08-24T04:17:11.129Z,967.53
2022-08-24T04:18:01.111Z,967.54
2022-08-24T04:18:51.124Z,967.52
2022-08-24T04:19:41.112Z,967.52
2022-08-24T04:20:31.090Z,967.52
2022-08-24T04:21:21.071Z,967.52
2022-08-24T04:22:11.060Z,967.49
2022-08-24T04:23:01.078Z,967.53
2022-08-24T04:23:51.053Z,967.47
2022-08-24T04:24:41.051Z,967.52
2022-08-24T04:25:31.031Z,967.53
2022-08-24T04:26:43.356Z,967.55
2022-08-24T04:27:12.019Z,967.51
2022-08-24T04:28:01.021Z,967.54
2022-08-24T04:28:50.990Z,967.55
2022-08-24T04:29:41.012Z,967.55
2022-08-24T04:30:30.970Z,967.56
2022-08-24T04:31:21.045Z,967.60
2022-08-24T04:32:11.010Z,967.59
2022-08-24T04:33:00.949Z,967.57
2022-08-24T04:33:53.948Z,967.60
2022-08-24T04:34:40.968Z,967.56
2022-08-24T04:35:30.909Z,967.58
2022-08-24T04:36:20.911Z,967.60
2022-08-24T04:37:11.561Z,967.59
2022-08-24T04:38:00.909Z,967.60
2022-08-24T04:38:50.886Z,967.58
2022-08-24T04:39:40.900Z,967.64
2022-08-24T04:40:30.914Z,967.60
2022-08-24T04:41:28.958Z,967.59
2022-08-24T04:42:12.465Z,967.64
2022-08-24T04:43:00.839Z,967.63
2022-08-24T04:43:50.829Z,967.62
2022-08-24T04:44:40.829Z,967.63
2022-08-24T04:45:30.830Z,967.63
2022-08-24T04:46:20.797Z,967.65
2022-08-24T04:47:10.790Z,967.65
2022-08-24T04:48:00.779Z,967.69
2022-08-24T04:48:50.758Z,967.68
2022-08-24T04:49:40.778Z,967.67
2022-08-24T04:50:30.760Z,967.68
2022-08-24T04:51:20.738Z,967.73
2022-08-24T04:52:10.718Z,967.71
2022-08-24T04:53:00.806Z,967.69
2022-08-24T04:53:50.731Z,967.67
2022-08-24T04:54:40.731Z,967.66
2022-08-24T04:55:30.704Z,967.68
2022-08-24T04:56:20.679Z,967.68
2022-08-24T04:57:13.576Z,967.71
2022-08-24T04:58:01.678Z,967.68
2022-08-24T04:58:50.687Z,967.69
2022-08-24T04:59:40.648Z,967.71
2022-08-24T05:00:30.674Z,967.79
2022-08-24T05:01:20.691Z,967.70
2022-08-24T05:02:10.674Z,967.79
2022-08-24T05:03:00.608Z,967.76
2022-08-24T05:03:50.609Z,967.70
2022-08-24T05:04:40.630Z,967.81
2022-08-24T05:05:30.575Z,967.73
2022-08-24T05:06:20.589Z,967.82
2022-08-24T05:07:10.577Z,967.80
2022-08-24T05:08:00.566Z,967.81
2022-08-24T05:08:50.546Z,967.83
2022-08-24T05:09:40.561Z,967.82
2022-08-24T05:10:33.661Z,967.88
2022-08-24T05:11:20.516Z,967.85
2022-08-24T05:12:10.496Z,967.85
2022-08-24T05:13:00.616Z,967.88
2022-08-24T05:13:50.485Z,967.91
2022-08-24T05:14:40.497Z,967.85
2022-08-24T05:15:30.476Z,967.84
2022-08-24T05:16:20.579Z,967.86
2022-08-24T05:17:10.603Z,967.89
2022-08-24T05:18:00.455Z,967.91
2022-08-24T05:18:50.435Z,967.87
2022-08-24T05:19:40.433Z,967.88
2022-08-24T05:20:30.424Z,967.86
2022-08-24T05:21:21.528Z,967.88
2022-08-24T05:22:10.385Z,967.84
2022-08-24T05:23:03.854Z,967.86
2022-08-24T05:23:51.387Z,967.85
2022-08-24T05:24:40.395Z,967.85
2022-08-24T05:25:30.369Z,967.89
2022-08-24T05:26:20.371Z,967.89
2022-08-24T05:27:10.343Z,967.89
2022-08-24T05:28:00.329Z,967.86
2022-08-24T05:28:50.305Z,967.89
2022-08-24T05:29:40.315Z,967.84
2022-08-24T05:30:30.305Z,967.88
2022-08-24T05:31:20.319Z,967.87
2022-08-24T05:32:10.297Z,967.88
2022-08-24T05:33:00.406Z,967.86
2022-08-24T05:33:50.256Z,967.87
2022-08-24T05:34:40.292Z,967.89
2022-08-24T05:35:30.244Z,967.91
2022-08-24T05:36:20.231Z,967.91
2022-08-24T05:37:10.226Z,967.90
2022-08-24T05:38:00.224Z,967.89
2022-08-24T05:38:50.204Z,967.92
2022-08-24T05:39:40.202Z,967.91
2022-08-24T05:40:33.291Z,967.92
2022-08-24T05:41:20.185Z,967.91
2022-08-24T05:42:10.181Z,967.93
2022-08-24T05:43:00.171Z,967.97
2022-08-24T05:43:50.155Z,967.90
2022-08-24T05:44:40.165Z,967.95
2022-08-24T05:45:30.125Z,967.97
2022-08-24T05:46:20.161Z,967.96
2022-08-24T05:47:10.111Z,967.98
2022-08-24T05:48:00.107Z,967.99
2022-08-24T05:48:52.949Z,968.00
2022-08-24T05:49:41.740Z,967.99
2022-08-24T05:50:30.072Z,968.01
2022-08-24T05:51:20.057Z,968.05
2022-08-24T05:52:10.054Z,968.01
2022-08-24T05:53:00.092Z,968.01
2022-08-24T05:53:50.055Z,968.03
2022-08-24T05:54:40.021Z,968.04
2022-08-24T05:55:30.021Z,968.05
2022-08-24T05:56:20.014Z,968.03
2022-08-24T05:57:10.012Z,968.04
2022-08-24T05:57:59.993Z,968.06
2022-08-24T05:58:49.991Z,968.04
2022-08-24T05:59:39.974Z,968.05
2022-08-24T06:00:29.965Z,968.06
2022-08-24T06:01:19.952Z,968.04
2022-08-24T06:02:10.051Z,968.05
2022-08-24T06:03:00.009Z,968.09
2022-08-24T06:03:49.966Z,968.06
2022-08-24T06:04:39.934Z,968.07
2022-08-24T06:05:29.924Z,968.05
2022-08-24T06:06:19.902Z,968.05
2022-08-24T06:07:09.892Z,968.02
2022-08-24T06:07:59.871Z,968.04
2022-08-24T06:08:49.862Z,968.06
2022-08-24T06:09:39.881Z,968.02
2022-08-24T06:10:37.241Z,968.07
2022-08-24T06:11:20.832Z,968.08
2022-08-24T06:12:09.831Z,968.02
2022-08-24T06:12:59.841Z,968.06
2022-08-24T06:13:51.925Z,968.00
2022-08-24T06:14:40.821Z,967.96
2022-08-24T06:15:29.793Z,967.94
2022-08-24T06:16:21.937Z,967.95
2022-08-24T06:17:09.844Z,967.96
2022-08-24T06:17:59.844Z,967.92
2022-08-24T06:18:49.791Z,967.90
2022-08-24T06:19:39.748Z,967.91
2022-08-24T06:20:29.731Z,967.91
2022-08-24T06:21:19.710Z,967.89
2022-08-24T06:22:09.730Z,967.89
2022-08-24T06:22:59.773Z,967.87
2022-08-24T06:23:49.710Z,967.89
2022-08-24T06:24:39.698Z,967.87
2022-08-24T06:25:29.681Z,967.86
2022-08-24T06:26:23.055Z,967.81
2022-08-24T06:27:09.694Z,967.83
2022-08-24T06:27:59.653Z,967.85
2022-08-24T06:28:49.637Z,967.87
2022-08-24T06:29:39.633Z,967.84
2022-08-24T06:30:30.175Z,967.84
2022-08-24T06:31:19.716Z,967.83
2022-08-24T06:32:09.609Z,967.85
2022-08-24T06:32:59.624Z,967.83
2022-08-24T06:33:49.608Z,967.89
2022-08-24T06:34:39.599Z,967.88
2022-08-24T06:35:29.570Z,967.85
2022-08-24T06:36:20.577Z,967.89
2022-08-24T06:37:09.550Z,967.86
2022-08-24T06:37:59.541Z,967.85
2022-08-24T06:38:49.526Z,967.87
2022-08-24T06:39:39.649Z,967.86
2022-08-24T06:40:29.564Z,967.85
2022-08-24T06:41:19.508Z,967.82
2022-08-24T06:42:09.499Z,967.83
2022-08-24T06:42:59.515Z,967.86
2022-08-24T06:43:49.479Z,967.84
2022-08-24T06:44:39.456Z,967.86
2022-08-24T06:45:29.482Z,967.82
2022-08-24T06:46:24.044Z,967.83
2022-08-24T06:47:10.475Z,967.83
2022-08-24T06:47:59.428Z,967.85
2022-08-24T06:48:49.452Z,967.82
2022-08-24T06:49:39.407Z,967.79
2022-08-24T06:50:29.413Z,967.77
2022-08-24T06:51:19.378Z,967.79
2022-08-24T06:52:09.388Z,967.82
2022-08-24T06:52:59.371Z,967.80
2022-08-24T06:53:49.367Z,967.87
2022-08-24T06:54:39.366Z,967.85
2022-08-24T06:55:29.367Z,967.82
2022-08-24T06:56:19.326Z,967.83
2022-08-24T06:57:09.327Z,967.84
2022-08-24T06:57:59.317Z,967.88
2022-08-24T06:58:49.299Z,967.86
2022-08-24T06:59:39.298Z,967.86
2022-08-24T07:00:29.287Z,967.85
2022-08-24T07:01:19.357Z,967.85
2022-08-24T07:02:09.341Z,967.88
2022-08-24T07:02:59.307Z,967.91
2022-08-24T07:03:49.277Z,967.87
2022-08-24T07:04:39.247Z,967.89
2022-08-24T07:05:29.226Z,967.85
2022-08-24T07:06:19.227Z,967.86
2022-08-24T07:07:09.208Z,967.82
2022-08-24T07:07:59.207Z,967.82
2022-08-24T07:08:49.201Z,967.82
2022-08-24T07:09:39.208Z,967.77
2022-08-24T07:10:29.166Z,967.81
2022-08-24T07:11:19.156Z,967.77
2022-08-24T07:12:09.159Z,967.75
2022-08-24T07:12:59.149Z,967.75
2022-08-24T07:13:49.172Z,967.73
2022-08-24T07:14:39.115Z,967.74
2022-08-24T07:15:29.115Z,967.70
2022-08-24T07:16:19.188Z,967.74
2022-08-24T07:17:09.093Z,967.72
2022-08-24T07:17:59.089Z,967.73
2022-08-24T07:18:50.146Z,967.74
2022-08-24T07:19:39.085Z,967.75
2022-08-24T07:20:29.079Z,967.75
2022-08-24T07:21:19.072Z,967.70
2022-08-24T07:22:09.057Z,967.72
2022-08-24T07:22:59.036Z,967.68
2022-08-24T07:23:49.035Z,967.73
2022-08-24T07:24:39.027Z,967.72
2022-08-24T07:25:29.016Z,967.76
2022-08-24T07:26:21.589Z,967.74
2022-08-24T07:27:08.984Z,967.76
2022-08-24T07:27:58.965Z,967.77
2022-08-24T07:28:49.005Z,967.77
2022-08-24T07:30:10.233Z,967.74
2022-08-24T07:30:29.972Z,967.74
2022-08-24T07:31:19.009Z,967.74
2022-08-24T07:32:08.925Z,967.71
2022-08-24T07:32:58.911Z,967.70
2022-08-24T07:33:48.955Z,967.71
2022-08-24T07:34:38.947Z,967.70
2022-08-24T07:35:28.898Z,967.68
2022-08-24T07:36:22.457Z,967.67
2022-08-24T07:37:08.881Z,967.68
2022-08-24T07:37:58.971Z,967.68
2022-08-24T07:38:48.851Z,967.70
2022-08-24T07:39:38.854Z,967.62
2022-08-24T07:40:28.872Z,967.58
2022-08-24T07:41:43.609Z,967.56
2022-08-24T07:42:13.865Z,967.57
2022-08-24T07:42:59.805Z,967.53
2022-08-24T07:43:48.797Z,967.53
2022-08-24T07:44:38.785Z,967.53
2022-08-24T07:45:28.773Z,967.55
2022-08-24T07:46:18.824Z,967.52
2022-08-24T07:47:34.221Z,967.48
2022-08-24T07:48:56.094Z,967.54
2022-08-24T07:49:39.799Z,967.53
2022-08-24T07:50:28.724Z,967.52
2022-08-24T07:51:18.695Z,967.51
2022-08-24T07:52:08.726Z,967.50
2022-08-24T07:52:58.695Z,967.54
2022-08-24T07:53:53.967Z,967.52
2022-08-24T07:54:39.675Z,967.55
2022-08-24T07:55:28.655Z,967.52
2022-08-24T07:56:18.664Z,967.56
2022-08-24T07:57:08.641Z,967.53
2022-08-24T07:57:58.625Z,967.55
2022-08-24T07:58:48.654Z,967.55
2022-08-24T07:59:38.617Z,967.55
2022-08-24T08:00:28.616Z,967.51
2022-08-24T08:01:18.634Z,967.55
2022-08-24T08:02:08.583Z,967.53
2022-08-24T08:02:58.658Z,967.51
2022-08-24T08:03:50.108Z,967.53
2022-08-24T08:04:38.580Z,967.54
2022-08-24T08:05:28.564Z,967.53
2022-08-24T08:06:18.543Z,967.57
2022-08-24T08:07:08.553Z,967.56
2022-08-24T08:07:58.554Z,967.52
2022-08-24T08:08:48.512Z,967.54
2022-08-24T08:09:38.493Z,967.49
2022-08-24T08:10:28.505Z,967.53
2022-08-24T08:11:18.494Z,967.49
2022-08-24T08:12:08.473Z,967.52
2022-08-24T08:12:58.506Z,967.52
2022-08-24T08:13:48.459Z,967.48
2022-08-24T08:14:38.475Z,967.47
2022-08-24T08:15:28.512Z,967.49
2022-08-24T08:16:18.449Z,967.46
2022-08-24T08:17:08.436Z,967.44
2022-08-24T08:17:58.417Z,967.43
2022-08-24T08:18:56.317Z,967.43
2022-08-24T08:19:39.404Z,967.45
2022-08-24T08:20:28.386Z,967.43
2022-08-24T08:21:18.374Z,967.41
2022-08-24T08:22:08.383Z,967.45
2022-08-24T08:22:58.435Z,967.43
2022-08-24T08:23:48.370Z,967.38
2022-08-24T08:24:38.336Z,967.39
2022-08-24T08:25:28.334Z,967.40
2022-08-24T08:26:18.310Z,967.41
2022-08-24T08:27:08.322Z,967.41
2022-08-24T08:28:04.270Z,967.42
2022-08-24T08:28:49.304Z,967.40
2022-08-24T08:29:38.272Z,967.37
2022-08-24T08:30:28.274Z,967.39
2022-08-24T08:31:18.301Z,967.37
2022-08-24T08:32:08.284Z,967.31
2022-08-24T08:32:58.234Z,967.31
2022-08-24T08:33:48.234Z,967.30
2022-08-24T08:34:38.236Z,967.37
2022-08-24T08:35:28.232Z,967.29
2022-08-24T08:36:18.204Z,967.31
2022-08-24T08:37:08.215Z,967.33
2022-08-24T08:37:58.285Z,967.31
2022-08-24T08:38:48.174Z,967.29
2022-08-24T08:39:38.174Z,967.28
2022-08-24T08:40:28.189Z,967.33
2022-08-24T08:41:18.183Z,967.37
2022-08-24T08:42:09.293Z,967.34
2022-08-24T08:42:58.146Z,967.34
2022-08-24T08:43:48.126Z,967.33
2022-08-24T08:44:38.104Z,967.36
2022-08-24T08:45:28.102Z,967.32
2022-08-24T08:46:18.161Z,967.33
2022-08-24T08:47:08.098Z,967.35
2022-08-24T08:47:58.202Z,967.35
2022-08-24T08:48:48.096Z,967.36
2022-08-24T08:49:38.086Z,967.36
2022-08-24T08:50:28.054Z,967.33
2022-08-24T08:51:18.054Z,967.34
2022-08-24T08:52:08.033Z,967.35
2022-08-24T08:52:58.078Z,967.30
2022-08-24T08:53:48.124Z,967.28
2022-08-24T08:54:38.780Z,967.28
2022-08-24T08:55:29.415Z,967.22
2022-08-24T08:56:17.981Z,967.23
2022-08-24T08:57:07.984Z,967.25
2022-08-24T08:57:58.245Z,967.28
2022-08-24T08:58:57.595Z,967.26
2022-08-24T08:59:38.967Z,967.26
2022-08-24T09:00:27.962Z,967.27
2022-08-24T09:01:17.959Z,967.29
2022-08-24T09:02:07.914Z,967.29
2022-08-24T09:02:57.946Z,967.27
2022-08-24T09:03:47.914Z,967.30
2022-08-24T09:04:37.944Z,967.36
2022-08-24T09:05:27.893Z,967.34
2022-08-24T09:06:17.876Z,967.36
2022-08-24T09:07:07.866Z,967.31
2022-08-24T09:07:57.903Z,967.30
2022-08-24T09:08:52.101Z,967.30
2022-08-24T09:09:37.825Z,967.41
2022-08-24T09:10:27.826Z,967.31
2022-08-24T09:11:17.826Z,967.32
2022-08-24T09:12:07.846Z,967.32
2022-08-24T09:12:57.805Z,967.30
2022-08-24T09:13:47.810Z,967.30
2022-08-24T09:14:37.777Z,967.33
2022-08-24T09:15:27.767Z,967.36
2022-08-24T09:16:17.788Z,967.36
2022-08-24T09:17:12.757Z,967.25
2022-08-24T09:17:58.765Z,967.25
2022-08-24T09:18:47.736Z,967.26
2022-08-24T09:19:37.726Z,967.27
2022-08-24T09:20:27.704Z,967.28
2022-08-24T09:21:17.714Z,967.25
2022-08-24T09:22:07.686Z,967.28
2022-08-24T09:22:57.684Z,967.21
2022-08-24T09:23:47.805Z,967.24
2022-08-24T09:24:37.676Z,967.20
2022-08-24T09:25:27.666Z,967.20
2022-08-24T09:26:19.183Z,967.24
2022-08-24T09:27:07.644Z,967.25
2022-08-24T09:27:57.649Z,967.22
2022-08-24T09:28:47.605Z,967.22
2022-08-24T09:29:37.657Z,967.27
2022-08-24T09:30:28.660Z,967.17
2022-08-24T09:31:17.720Z,967.21
2022-08-24T09:32:07.579Z,967.23
2022-08-24T09:32:57.576Z,967.12
2022-08-24T09:33:47.576Z,967.13
2022-08-24T09:34:37.546Z,967.21
2022-08-24T09:35:27.556Z,967.15
2022-08-24T09:36:17.547Z,967.16
2022-08-24T09:37:07.544Z,967.23
2022-08-24T09:37:57.506Z,967.15
2022-08-24T09:38:47.509Z,967.16
2022-08-24T09:39:37.495Z,967.19
2022-08-24T09:40:27.523Z,967.22
2022-08-24T09:41:17.475Z,967.21
2022-08-24T09:42:07.509Z,967.19
2022-08-24T09:42:57.580Z,967.14
2022-08-24T09:43:47.447Z,967.17
2022-08-24T09:44:37.427Z,967.18
2022-08-24T09:45:27.466Z,967.14
2022-08-24T09:46:17.437Z,967.10
2022-08-24T09:47:07.425Z,967.11
2022-08-24T09:47:57.431Z,967.14
2022-08-24T09:48:47.388Z,967.17
2022-08-24T09:49:37.398Z,967.18
2022-08-24T09:50:27.378Z,967.24
2022-08-24T09:51:17.367Z,967.17
2022-08-24T09:52:07.348Z,967.19
2022-08-24T09:52:57.433Z,967.14
2022-08-24T09:53:47.348Z,967.19
2022-08-24T09:54:37.329Z,967.22
2022-08-24T09:55:27.307Z,967.18
2022-08-24T09:56:17.317Z,967.21
2022-08-24T09:57:12.492Z,967.18
2022-08-24T09:58:00.926Z,967.22
2022-08-24T09:58:47.289Z,967.15
2022-08-24T09:59:37.330Z,967.10
2022-08-24T10:00:27.248Z,967.17
2022-08-24T10:01:17.311Z,967.15
2022-08-24T10:02:07.268Z,966.99
2022-08-24T10:02:57.237Z,967.06
2022-08-24T10:03:47.215Z,967.06
2022-08-24T10:04:37.299Z,967.05
2022-08-24T10:05:27.459Z,967.07
2022-08-24T10:06:17.261Z,967.10
2022-08-24T10:07:07.172Z,967.06
2022-08-24T10:07:57.185Z,967.06
2022-08-24T10:08:47.169Z,967.01
2022-08-24T10:09:37.150Z,967.10
2022-08-24T10:10:27.149Z,967.00
2022-08-24T10:11:17.129Z,967.00
2022-08-24T10:12:07.130Z,967.06
2022-08-24T10:12:57.130Z,967.04
2022-08-24T10:13:47.127Z,967.00
2022-08-24T10:14:37.117Z,966.99
2022-08-24T10:15:27.091Z,966.96
2022-08-24T10:16:17.121Z,966.99
2022-08-24T10:17:07.059Z,966.93
2022-08-24T10:17:57.168Z,966.91
2022-08-24T10:18:47.047Z,966.98
2022-08-24T10:19:37.082Z,967.00
2022-08-24T10:20:27.039Z,966.95
2022-08-24T10:21:17.046Z,966.99
2022-08-24T10:22:07.028Z,966.98
2022-08-24T10:22:57.018Z,966.90
2022-08-24T10:23:47.040Z,966.91
2022-08-24T10:24:36.989Z,966.91